createdAt,value
2023-05-19T00:00:11.544Z,7.57
2023-05-19T00:03:15.279Z,3.55
2023-05-19T00:06:23.067Z,2.08
2023-05-19T00:09:26.854Z,8.25
2023-05-19T00:12:32.682Z,6.22
2023-05-19T00:15:37.040Z,2.28
2023-05-19T00:18:41.787Z,4.10
2023-05-19T00:21:45.096Z,2.38
2023-05-19T00:24:48.585Z,4.93
2023-05-19T00:27:52.094Z,5.13
2023-05-19T00:30:57.174Z,5.15
2023-05-19T00:34:00.922Z,1.90
2023-05-19T00:40:27.146Z,3.05
2023-05-19T00:43:31.288Z,6.75
2023-05-19T00:46:34.722Z,3.45
2023-05-19T00:49:38.703Z,1.33
2023-05-19T00:52:41.719Z,4.05
2023-05-19T00:55:45.829Z,6.63
2023-05-19T00:58:51.579Z,7.50
2023-05-19T01:01:55.585Z,5.70
2023-05-19T01:05:00.348Z,7.28
2023-05-19T01:08:04.626Z,4.45
2023-05-19T01:11:08.657Z,7.20
2023-05-19T01:14:12.072Z,2.00
2023-05-19T01:17:43.016Z,3.55
2023-05-19T01:20:59.810Z,5.38
2023-05-19T01:24:31.136Z,4.10
2023-05-19T01:28:04.066Z,4.35
2023-05-19T01:31:10.591Z,3.38
2023-05-19T01:34:17.249Z,4.00
2023-05-19T01:40:27.333Z,2.22
2023-05-19T01:43:31.373Z,1.70
2023-05-19T01:46:36.251Z,3.55
2023-05-19T01:49:39.441Z,3.92
2023-05-19T01:52:42.497Z,2.85
2023-05-19T01:55:50.219Z,6.88
2023-05-19T01:59:32.334Z,3.80
2023-05-19T02:02:55.831Z,4.22
2023-05-19T02:06:30.622Z,3.72
2023-05-19T02:10:00.064Z,3.97
2023-05-19T02:13:07.196Z,7.40
2023-05-19T02:19:33.047Z,5.53
2023-05-19T02:22:36.689Z,4.88
2023-05-19T02:25:40.579Z,4.75
2023-05-19T02:28:44.177Z,3.40
2023-05-19T02:31:48.240Z,3.85
2023-05-19T02:34:52.247Z,4.75
2023-05-19T02:37:56.365Z,4.57
2023-05-19T02:41:01.356Z,6.65
2023-05-19T02:44:05.969Z,5.00
2023-05-19T02:47:10.336Z,5.28
2023-05-19T02:50:14.918Z,1.73
2023-05-19T02:53:18.650Z,2.58
2023-05-19T02:56:22.776Z,2.10
2023-05-19T02:59:26.683Z,4.65
2023-05-19T03:02:30.565Z,3.72
2023-05-19T03:05:34.433Z,3.55
2023-05-19T03:08:37.701Z,2.83
2023-05-19T03:11:41.902Z,6.30
2023-05-19T03:14:45.027Z,3.40
2023-05-19T03:17:48.694Z,3.25
2023-05-19T03:20:54.483Z,9.30
2023-05-19T03:24:00.058Z,4.35
2023-05-19T03:27:07.861Z,4.88
2023-05-19T03:30:13.227Z,8.82
2023-05-19T03:33:37.017Z,8.45
2023-05-19T03:36:41.940Z,3.15
2023-05-19T03:39:50.723Z,4.68
2023-05-19T03:42:55.404Z,8.82
2023-05-19T03:45:59.356Z,4.00
2023-05-19T03:49:18.605Z,3.47
2023-05-19T03:52:47.173Z,3.78
2023-05-19T03:56:20.081Z,4.28
2023-05-19T03:59:24.332Z,4.45
2023-05-19T04:02:28.638Z,4.13
2023-05-19T04:05:32.711Z,3.30
2023-05-19T04:08:37.170Z,5.22
2023-05-19T04:11:42.018Z,3.75
2023-05-19T04:14:46.060Z,4.00
2023-05-19T04:17:50.031Z,4.47
2023-05-19T04:20:55.210Z,4.28
2023-05-19T04:24:00.792Z,4.78
2023-05-19T04:27:05.797Z,8.38
2023-05-19T04:30:10.142Z,2.90
2023-05-19T04:33:15.941Z,4.15
2023-05-19T04:36:21.999Z,2.05
2023-05-19T04:39:28.858Z,7.40
2023-05-19T04:42:33.550Z,4.03
2023-05-19T04:45:43.358Z,6.27
2023-05-19T04:48:48.271Z,2.55
2023-05-19T04:51:55.845Z,3.30
2023-05-19T04:55:04.154Z,2.63
2023-05-19T04:58:08.561Z,5.20
2023-05-19T05:01:17.075Z,3.15
2023-05-19T05:04:22.503Z,3.63
2023-05-19T05:07:26.287Z,5.85
2023-05-19T05:10:31.015Z,3.63
2023-05-19T05:13:35.624Z,4.68
2023-05-19T05:16:39.821Z,2.95
2023-05-19T05:19:46.093Z,2.70
2023-05-19T05:22:50.790Z,3.28
2023-05-19T05:25:55.328Z,2.40
2023-05-19T05:28:59.850Z,4.35
2023-05-19T05:32:03.573Z,7.78
2023-05-19T05:35:07.746Z,4.72
2023-05-19T05:38:12.144Z,2.97
2023-05-19T05:41:17.255Z,2.15
2023-05-19T05:44:22.627Z,2.22
2023-05-19T05:47:27.777Z,2.55
2023-05-19T05:50:32.168Z,3.53
2023-05-19T05:53:42.411Z,3.10
2023-05-19T05:56:46.679Z,3.67
2023-05-19T05:59:51.641Z,8.00
2023-05-19T06:02:55.476Z,2.72
2023-05-19T06:05:59.425Z,3.15
2023-05-19T06:09:03.601Z,4.57
2023-05-19T06:12:07.948Z,3.65
2023-05-19T06:15:17.796Z,4.13
2023-05-19T06:18:42.148Z,4.78
2023-05-19T06:21:46.733Z,5.10
2023-05-19T06:24:52.169Z,3.08
2023-05-19T06:27:56.413Z,4.80
2023-05-19T06:31:01.273Z,6.88
2023-05-19T06:34:26.343Z,12.23
2023-05-19T06:37:32.401Z,2.72
2023-05-19T06:40:37.686Z,2.92
2023-05-19T06:43:41.741Z,5.65
2023-05-19T06:46:52.273Z,3.33
2023-05-19T06:49:59.425Z,2.30
2023-05-19T06:53:08.396Z,2.83
2023-05-19T06:56:13.022Z,3.03
2023-05-19T06:59:16.856Z,6.10
2023-05-19T07:02:21.542Z,4.07
2023-05-19T07:05:26.341Z,3.22
2023-05-19T07:08:34.508Z,3.47
2023-05-19T07:11:39.342Z,3.33
2023-05-19T07:14:44.994Z,6.13
2023-05-19T07:17:50.007Z,4.57
2023-05-19T07:20:54.931Z,4.65
2023-05-19T07:23:59.392Z,6.72
2023-05-19T07:27:04.638Z,4.68
2023-05-19T07:30:09.101Z,6.00
2023-05-19T07:33:13.257Z,3.00
2023-05-19T07:36:17.857Z,3.22
2023-05-19T07:39:22.383Z,3.72
2023-05-19T07:42:26.394Z,7.00
2023-05-19T07:45:30.250Z,3.70
2023-05-19T07:48:33.704Z,5.85
2023-05-19T07:51:37.621Z,4.00
2023-05-19T07:54:41.267Z,5.18
2023-05-19T07:57:45.555Z,4.85
2023-05-19T08:00:49.500Z,4.63
2023-05-19T08:03:53.685Z,3.20
2023-05-19T08:07:00.904Z,4.47
2023-05-19T08:10:05.324Z,6.03
2023-05-19T08:13:09.559Z,5.20
2023-05-19T08:16:13.233Z,5.03
2023-05-19T08:19:16.846Z,5.63
2023-05-19T08:22:20.199Z,3.60
2023-05-19T08:25:23.731Z,5.20
2023-05-19T08:28:27.349Z,4.32
2023-05-19T08:31:30.783Z,5.18
2023-05-19T08:34:34.698Z,4.20
2023-05-19T08:37:40.735Z,6.43
2023-05-19T08:40:48.554Z,4.45
2023-05-19T08:43:52.052Z,3.58
2023-05-19T08:47:05.480Z,4.32
2023-05-19T08:50:13.857Z,4.50
2023-05-19T08:53:33.397Z,6.35
2023-05-19T08:56:39.736Z,4.13
2023-05-19T08:59:45.056Z,5.25
2023-05-19T09:03:00.727Z,5.20
2023-05-19T09:06:13.552Z,5.07
2023-05-19T09:09:17.900Z,6.47
2023-05-19T09:12:21.910Z,4.40
2023-05-19T09:15:28.694Z,6.53
2023-05-19T09:18:32.613Z,7.18
2023-05-19T09:21:36.968Z,6.07
2023-05-19T09:24:41.493Z,6.38
2023-05-19T09:27:46.311Z,5.72
2023-05-19T09:30:49.583Z,5.72
2023-05-19T09:33:54.635Z,4.88
2023-05-19T09:37:01.354Z,7.03
2023-05-19T09:40:06.244Z,6.35
2023-05-19T09:46:31.706Z,5.85
2023-05-19T09:49:35.393Z,6.88
2023-05-19T09:52:39.994Z,5.75
2023-05-19T09:55:43.837Z,7.53
2023-05-19T09:58:46.893Z,5.38
2023-05-19T10:01:50.746Z,5.07
2023-05-19T10:04:55.563Z,5.00
2023-05-19T10:07:59.162Z,6.93
2023-05-19T10:11:03.169Z,7.18
2023-05-19T10:14:06.878Z,6.10
2023-05-19T10:17:13.477Z,6.57
2023-05-19T10:20:18.014Z,6.28
2023-05-19T10:23:21.220Z,6.75
2023-05-19T10:26:27.137Z,8.23
2023-05-19T10:29:35.440Z,7.68
2023-05-19T10:32:41.372Z,8.15
2023-05-19T10:36:11.450Z,5.25
2023-05-19T10:39:29.815Z,8.45
2023-05-19T10:42:50.904Z,4.78
2023-05-19T10:45:58.900Z,5.85
2023-05-19T10:49:02.779Z,5.00
2023-05-19T10:52:24.116Z,4.85
2023-05-19T10:56:04.941Z,5.85
2023-05-19T10:59:08.080Z,5.28
2023-05-19T11:02:12.367Z,6.05
2023-05-19T11:05:19.357Z,5.75
2023-05-19T11:08:34.160Z,5.25
2023-05-19T11:11:48.088Z,6.45
2023-05-19T11:15:00.173Z,6.00
2023-05-19T11:18:05.664Z,7.47
2023-05-19T11:21:09.498Z,10.73
2023-05-19T11:24:40.983Z,7.63
2023-05-19T11:27:47.586Z,7.50
2023-05-19T11:30:52.766Z,6.47
2023-05-19T11:33:56.526Z,7.63
2023-05-19T11:37:00.798Z,7.35
2023-05-19T11:40:08.693Z,5.20
2023-05-19T11:43:12.854Z,7.88
2023-05-19T11:46:17.029Z,7.80
2023-05-19T11:49:21.131Z,9.00
2023-05-19T11:52:28.098Z,8.02
2023-05-19T11:55:32.048Z,4.20
2023-05-19T11:58:35.499Z,5.65
2023-05-19T12:01:39.203Z,7.50
2023-05-19T12:04:43.344Z,4.97
2023-05-19T12:07:50.608Z,6.45
2023-05-19T12:10:54.699Z,7.70
2023-05-19T12:14:02.661Z,5.03
2023-05-19T12:17:14.624Z,4.20
2023-05-19T12:20:20.556Z,8.63
2023-05-19T12:23:25.859Z,5.00
2023-05-19T12:26:29.210Z,5.95
2023-05-19T12:29:33.726Z,7.28
2023-05-19T12:32:37.762Z,6.55
2023-05-19T12:35:44.474Z,7.30
2023-05-19T12:38:48.992Z,10.07
2023-05-19T12:41:52.795Z,9.90
2023-05-19T12:44:58.378Z,6.82
2023-05-19T12:48:07.474Z,8.17
2023-05-19T12:51:11.016Z,12.18
2023-05-19T12:54:14.814Z,10.65
2023-05-19T12:57:19.182Z,9.30
2023-05-19T13:00:26.793Z,11.35
2023-05-19T13:03:32.581Z,8.98
2023-05-19T13:06:36.823Z,13.30
2023-05-19T13:09:39.866Z,14.05
2023-05-19T13:20:12.793Z,8.45
2023-05-19T13:23:17.434Z,11.57
2023-05-19T13:26:22.553Z,11.77
2023-05-19T13:29:26.560Z,16.20
2023-05-19T13:32:29.966Z,24.98
2023-05-19T13:35:42.661Z,15.90
2023-05-19T13:38:47.164Z,15.02
2023-05-19T13:41:51.364Z,12.85
2023-05-19T13:44:57.942Z,12.77
2023-05-19T13:48:01.934Z,14.40
2023-05-19T13:51:06.458Z,12.05
2023-05-19T13:54:10.726Z,15.70
2023-05-19T13:57:15.585Z,13.68
2023-05-19T14:00:20.763Z,13.93
2023-05-19T14:03:25.954Z,12.77
2023-05-19T14:06:29.818Z,15.23
2023-05-19T14:09:33.739Z,17.48
2023-05-19T14:12:55.247Z,16.77
2023-05-19T14:16:00.673Z,13.20
2023-05-19T14:19:05.511Z,15.63
2023-05-19T14:22:10.508Z,15.18
2023-05-19T14:25:14.923Z,18.23
2023-05-19T14:28:20.929Z,14.85
2023-05-19T14:31:26.789Z,12.80
2023-05-19T14:34:31.968Z,9.45
2023-05-19T14:37:35.736Z,7.70
2023-05-19T14:40:42.582Z,11.50
2023-05-19T14:43:48.842Z,14.18
2023-05-19T14:46:53.163Z,11.77
2023-05-19T14:49:57.849Z,10.40
2023-05-19T14:53:02.509Z,7.57
2023-05-19T14:56:07.350Z,8.13
2023-05-19T14:59:11.550Z,7.35
2023-05-19T15:02:15.390Z,6.90
2023-05-19T15:05:19.408Z,9.07
2023-05-19T15:08:23.256Z,8.95
2023-05-19T15:11:27.728Z,10.60
2023-05-19T15:14:32.008Z,9.18
2023-05-19T15:17:36.230Z,8.65
2023-05-19T15:20:40.581Z,6.05
2023-05-19T15:23:45.704Z,7.95
2023-05-19T15:26:50.221Z,8.05
2023-05-19T15:29:54.802Z,8.18
2023-05-19T15:32:59.174Z,11.25
2023-05-19T15:36:03.302Z,6.07
2023-05-19T15:39:07.874Z,6.93
2023-05-19T15:42:12.615Z,10.25
2023-05-19T15:45:16.454Z,9.32
2023-05-19T15:48:20.945Z,10.90
2023-05-19T15:51:27.194Z,9.80
2023-05-19T15:54:32.246Z,11.25
2023-05-19T15:57:36.691Z,8.23
2023-05-19T16:00:41.541Z,8.55
2023-05-19T16:03:47.365Z,9.73
2023-05-19T16:06:53.595Z,8.55
2023-05-19T16:09:57.215Z,10.50
2023-05-19T16:13:02.023Z,8.98
2023-05-19T16:16:06.811Z,7.47
2023-05-19T16:19:11.546Z,7.43
2023-05-19T16:22:15.318Z,7.07
2023-05-19T16:25:20.560Z,6.60
2023-05-19T16:28:25.304Z,6.65
2023-05-19T16:31:31.022Z,11.80
2023-05-19T16:34:35.401Z,5.93
2023-05-19T16:37:40.194Z,8.82
2023-05-19T16:40:45.509Z,10.88
2023-05-19T16:43:50.417Z,6.43
2023-05-19T16:46:55.203Z,6.93
2023-05-19T16:50:01.383Z,6.97
2023-05-19T16:53:06.639Z,10.10
2023-05-19T16:56:10.990Z,7.55
2023-05-19T16:59:14.617Z,11.45
2023-05-19T17:02:18.571Z,6.45
2023-05-19T17:05:24.262Z,7.70
2023-05-19T17:08:28.935Z,6.13
2023-05-19T17:11:32.910Z,7.85
2023-05-19T17:14:37.683Z,6.18
2023-05-19T17:17:41.577Z,9.25
2023-05-19T17:20:47.703Z,7.45
2023-05-19T17:23:52.227Z,6.40
2023-05-19T17:26:56.979Z,6.40
2023-05-19T17:30:01.264Z,7.88
2023-05-19T17:33:06.161Z,10.75
2023-05-19T17:36:10.434Z,6.47
2023-05-19T17:39:15.234Z,11.02
2023-05-19T17:42:20.076Z,9.75
2023-05-19T17:45:27.716Z,8.38
2023-05-19T17:48:31.868Z,12.48
2023-05-19T17:51:36.488Z,10.32
2023-05-19T17:54:40.601Z,9.70
2023-05-19T17:57:46.964Z,9.13
2023-05-19T18:00:53.772Z,10.52
2023-05-19T18:03:58.183Z,9.20
2023-05-19T18:07:03.879Z,8.65
2023-05-19T18:10:09.969Z,12.18
2023-05-19T18:13:17.389Z,10.95
2023-05-19T18:16:21.430Z,12.90
2023-05-19T18:19:25.585Z,7.95
2023-05-19T18:22:29.367Z,8.38
2023-05-19T18:25:33.625Z,7.78
2023-05-19T18:28:37.681Z,8.65
2023-05-19T18:31:43.815Z,10.30
2023-05-19T18:34:48.516Z,9.30
2023-05-19T18:37:52.511Z,7.55
2023-05-19T18:40:57.639Z,6.63
2023-05-19T18:44:01.680Z,8.75
2023-05-19T18:47:06.802Z,5.90
2023-05-19T18:50:11.519Z,9.95
2023-05-19T18:53:16.298Z,12.57
2023-05-19T18:56:27.976Z,10.57
2023-05-19T18:59:32.550Z,5.25
2023-05-19T19:02:38.438Z,9.68
2023-05-19T19:05:43.056Z,7.63
2023-05-19T19:08:48.089Z,6.97
2023-05-19T19:11:52.928Z,7.47
2023-05-19T19:14:57.546Z,13.52
2023-05-19T19:18:05.547Z,9.43
2023-05-19T19:21:12.364Z,16.85
2023-05-19T19:24:16.065Z,9.98
2023-05-19T19:27:21.556Z,8.98
2023-05-19T19:30:26.536Z,8.02
2023-05-19T19:33:30.432Z,10.35
2023-05-19T19:36:34.651Z,9.00
2023-05-19T19:39:38.750Z,11.65
2023-05-19T19:42:43.231Z,15.20
2023-05-19T19:45:47.129Z,10.73
2023-05-19T19:48:52.263Z,13.82
2023-05-19T19:51:55.480Z,18.42
2023-05-19T19:54:59.702Z,13.70
2023-05-19T19:58:03.595Z,12.30
2023-05-19T20:01:08.914Z,10.13
2023-05-19T20:04:13.117Z,11.15
2023-05-19T20:07:20.668Z,7.95
2023-05-19T20:10:24.546Z,7.68
2023-05-19T20:13:32.800Z,8.40
2023-05-19T20:16:36.931Z,9.90
2023-05-19T20:19:41.482Z,11.30
2023-05-19T20:22:47.644Z,9.77
2023-05-19T20:26:10.098Z,6.60
2023-05-19T20:29:15.181Z,10.30
2023-05-19T20:32:19.215Z,7.97
2023-05-19T20:35:23.167Z,15.60
2023-05-19T20:38:27.193Z,8.68
2023-05-19T20:41:30.709Z,8.85
2023-05-19T20:44:34.543Z,8.25
2023-05-19T20:47:38.476Z,7.65
2023-05-19T20:50:42.919Z,9.65
2023-05-19T20:53:46.468Z,9.80
2023-05-19T20:56:50.598Z,8.55
2023-05-19T20:59:54.498Z,11.88
2023-05-19T21:02:58.852Z,10.32
2023-05-19T21:06:02.697Z,8.10
2023-05-19T21:09:07.651Z,13.40
2023-05-19T21:12:11.235Z,8.25
2023-05-19T21:15:15.624Z,6.70
2023-05-19T21:18:19.413Z,9.93
2023-05-19T21:21:23.120Z,13.05
2023-05-19T21:24:27.060Z,7.47
2023-05-19T21:27:33.809Z,8.43
2023-05-19T21:30:37.681Z,6.85
2023-05-19T21:33:41.435Z,7.93
2023-05-19T21:36:44.848Z,8.43
2023-05-19T21:39:48.566Z,8.48
2023-05-19T21:42:52.283Z,8.30
2023-05-19T21:45:56.466Z,5.18
2023-05-19T21:48:59.874Z,5.78
2023-05-19T21:52:03.540Z,6.32
2023-05-19T21:55:08.082Z,8.55
2023-05-19T21:58:12.229Z,8.32
2023-05-19T22:01:15.952Z,11.30
2023-05-19T22:04:19.913Z,8.65
2023-05-19T22:07:27.440Z,8.57
2023-05-19T22:10:31.829Z,9.45
2023-05-19T22:13:37.954Z,6.93
2023-05-19T22:16:41.021Z,7.47
2023-05-19T22:19:44.805Z,13.27
2023-05-19T22:22:48.799Z,11.32
2023-05-19T22:25:52.578Z,5.47
2023-05-19T22:28:56.835Z,9.30
2023-05-19T22:32:00.323Z,6.95
2023-05-19T22:35:04.332Z,11.90
2023-05-19T22:38:12.674Z,7.18
2023-05-19T22:41:16.661Z,15.25
2023-05-19T22:44:20.238Z,15.13
2023-05-19T22:47:24.708Z,12.05
2023-05-19T22:50:28.567Z,8.80
2023-05-19T22:53:32.614Z,11.90
2023-05-19T22:56:36.423Z,9.45
2023-05-19T22:59:40.569Z,6.22
2023-05-19T23:02:43.707Z,10.45
2023-05-19T23:05:47.515Z,7.22
2023-05-19T23:09:00.151Z,16.67
2023-05-19T23:12:04.169Z,6.38
2023-05-19T23:15:10.267Z,7.53
2023-05-19T23:18:15.975Z,8.02
2023-05-19T23:21:20.040Z,8.05
2023-05-19T23:24:24.081Z,7.88
2023-05-19T23:27:27.844Z,5.95
2023-05-19T23:30:33.904Z,8.38
2023-05-19T23:33:37.717Z,8.38
2023-05-19T23:36:40.884Z,10.32
2023-05-19T23:39:44.564Z,9.15
2023-05-19T23:42:48.006Z,8.25
2023-05-19T23:45:51.698Z,7.22
2023-05-19T23:48:56.011Z,8.38
2023-05-19T23:51:59.022Z,5.30
2023-05-19T23:55:04.401Z,4.25
2023-05-19T23:58:08.128Z,7.88
